createdAt,value
2023-10-09T00:02:13.624Z,1.73
2023-10-09T00:04:46.633Z,1.83
2023-10-09T00:07:18.582Z,2.00
2023-10-09T00:09:48.787Z,1.60
2023-10-09T00:12:24.324Z,2.17
2023-10-09T00:14:57.376Z,1.70
2023-10-09T00:17:25.623Z,1.52
2023-10-09T00:19:53.764Z,1.60
2023-10-09T00:22:27.375Z,1.50
2023-10-09T00:25:21.544Z,1.60
2023-10-09T00:27:49.591Z,1.88
2023-10-09T00:30:31.072Z,1.98
2023-10-09T00:33:06.156Z,2.00
2023-10-09T00:35:37.984Z,3.10
2023-10-09T00:38:25.549Z,2.20
2023-10-09T00:41:09.323Z,1.73
2023-10-09T00:43:38.504Z,2.03
2023-10-09T00:46:25.577Z,1.60
2023-10-09T00:48:58.971Z,2.10
2023-10-09T00:51:27.906Z,1.75
2023-10-09T00:54:08.126Z,1.67
2023-10-09T00:56:40.483Z,2.53
2023-10-09T00:59:10.904Z,1.38
2023-10-09T01:01:41.181Z,1.70
2023-10-09T01:04:11.889Z,1.83
2023-10-09T01:06:46.551Z,1.50
2023-10-09T01:11:52.913Z,2.65
2023-10-09T01:14:22.690Z,2.30
2023-10-09T01:16:50.076Z,2.58
2023-10-09T01:19:26.537Z,1.88
2023-10-09T01:21:54.259Z,1.90
2023-10-09T01:24:21.990Z,1.73
2023-10-09T01:26:50.752Z,1.70
2023-10-09T01:29:23.117Z,2.00
2023-10-09T01:31:52.821Z,2.15
2023-10-09T01:34:25.368Z,1.35
2023-10-09T01:36:57.317Z,1.92
2023-10-09T01:39:27.042Z,2.00
2023-10-09T01:42:00.018Z,1.75
2023-10-09T01:44:31.637Z,2.50
2023-10-09T01:46:59.322Z,1.83
2023-10-09T01:49:32.604Z,2.22
2023-10-09T01:52:03.133Z,1.77
2023-10-09T01:54:38.259Z,1.48
2023-10-09T01:57:16.161Z,1.67
2023-10-09T01:59:45.376Z,1.92
2023-10-09T02:02:35.002Z,1.70
2023-10-09T02:05:10.180Z,1.88
2023-10-09T02:08:07.659Z,1.65
2023-10-09T02:10:35.034Z,1.77
2023-10-09T02:13:11.620Z,1.63
2023-10-09T02:15:47.329Z,1.55
2023-10-09T02:18:27.100Z,1.52
2023-10-09T02:21:05.522Z,1.30
2023-10-09T02:23:41.638Z,1.50
2023-10-09T02:26:10.689Z,1.38
2023-10-09T02:28:38.591Z,1.40
2023-10-09T02:31:13.244Z,1.25
2023-10-09T02:33:40.980Z,1.88
2023-10-09T02:36:08.664Z,2.10
2023-10-09T02:38:42.041Z,1.83
2023-10-09T02:41:15.522Z,1.80
2023-10-09T02:43:46.222Z,1.83
2023-10-09T02:46:21.542Z,1.25
2023-10-09T02:48:53.834Z,1.48
2023-10-09T02:51:27.596Z,1.73
2023-10-09T02:54:00.009Z,1.53
2023-10-09T02:57:00.059Z,1.70
2023-10-09T02:59:27.452Z,1.40
2023-10-09T03:01:55.060Z,1.45
2023-10-09T03:04:25.432Z,1.30
2023-10-09T03:06:54.494Z,1.50
2023-10-09T03:09:28.568Z,1.35
2023-10-09T03:12:03.905Z,1.40
2023-10-09T03:14:39.610Z,1.40
2023-10-09T03:17:12.657Z,1.60
2023-10-09T03:19:41.307Z,1.58
2023-10-09T03:22:11.768Z,1.58
2023-10-09T03:24:45.721Z,1.20
2023-10-09T03:27:15.415Z,1.50
2023-10-09T03:29:43.102Z,1.55
2023-10-09T03:32:10.469Z,1.75
2023-10-09T03:34:38.019Z,1.10
2023-10-09T03:37:05.465Z,1.35
2023-10-09T03:39:39.784Z,1.65
2023-10-09T03:44:45.435Z,1.15
2023-10-09T03:47:13.321Z,1.50
2023-10-09T03:49:40.711Z,1.25
2023-10-09T03:52:08.044Z,1.98
2023-10-09T03:54:36.556Z,1.20
2023-10-09T03:57:03.952Z,1.38
2023-10-09T03:59:33.862Z,1.60
2023-10-09T04:02:01.300Z,1.50
2023-10-09T04:04:30.167Z,1.13
2023-10-09T04:06:57.520Z,1.63
2023-10-09T04:09:24.866Z,1.75
2023-10-09T04:12:12.728Z,1.42
2023-10-09T04:14:50.922Z,1.27
2023-10-09T04:17:24.155Z,1.40
2023-10-09T04:20:10.345Z,1.40
2023-10-09T04:23:00.881Z,1.52
2023-10-09T04:25:30.499Z,1.50
2023-10-09T04:28:32.255Z,1.77
2023-10-09T04:31:03.531Z,1.95
2023-10-09T04:33:41.948Z,1.60
2023-10-09T04:36:17.920Z,1.40
2023-10-09T04:38:57.325Z,1.70
2023-10-09T04:41:29.140Z,1.73
2023-10-09T04:44:19.460Z,1.05
2023-10-09T04:47:07.463Z,1.88
2023-10-09T04:49:50.807Z,1.50
2023-10-09T04:52:39.286Z,1.38
2023-10-09T04:55:10.314Z,1.50
2023-10-09T04:57:45.213Z,1.60
2023-10-09T05:00:26.104Z,2.03
2023-10-09T05:03:26.036Z,1.52
2023-10-09T05:06:22.262Z,1.42
2023-10-09T05:08:50.777Z,1.40
2023-10-09T05:11:54.451Z,1.45
2023-10-09T05:14:28.383Z,1.40
2023-10-09T05:16:56.462Z,1.15
2023-10-09T05:19:31.208Z,1.58
2023-10-09T05:21:59.677Z,1.50
2023-10-09T05:24:30.102Z,1.30
2023-10-09T05:27:17.402Z,1.20
2023-10-09T05:30:00.813Z,1.10
2023-10-09T05:32:36.159Z,1.25
2023-10-09T05:35:03.660Z,1.55
2023-10-09T05:37:35.173Z,1.60
2023-10-09T05:40:24.404Z,1.55
2023-10-09T05:43:01.119Z,1.52
2023-10-09T05:45:51.626Z,2.10
2023-10-09T05:48:39.177Z,2.45
2023-10-09T05:51:35.864Z,3.20
2023-10-09T05:54:21.810Z,2.28
2023-10-09T05:57:15.113Z,2.50
2023-10-09T06:00:00.959Z,1.63
2023-10-09T06:03:06.259Z,1.48
2023-10-09T06:05:43.031Z,2.13
2023-10-09T06:08:11.150Z,1.85
2023-10-09T06:10:41.765Z,2.00
2023-10-09T06:13:27.796Z,2.10
2023-10-09T06:16:10.946Z,1.73
2023-10-09T06:18:44.543Z,2.33
2023-10-09T06:21:40.854Z,2.30
2023-10-09T06:24:19.210Z,2.33
2023-10-09T06:27:00.215Z,2.28
2023-10-09T06:29:51.829Z,1.48
2023-10-09T06:32:20.297Z,2.15
2023-10-09T06:34:53.349Z,2.15
2023-10-09T06:37:26.996Z,1.80
2023-10-09T06:39:58.230Z,1.83
2023-10-09T06:42:39.887Z,1.60
2023-10-09T06:45:17.419Z,1.40
2023-10-09T06:48:08.592Z,2.08
2023-10-09T06:50:55.448Z,1.67
2023-10-09T06:53:27.830Z,1.70
2023-10-09T06:56:06.827Z,1.75
2023-10-09T06:58:43.465Z,1.50
2023-10-09T07:01:29.135Z,1.17
2023-10-09T07:04:16.558Z,1.60
2023-10-09T07:06:44.421Z,1.88
2023-10-09T07:09:12.161Z,1.63
2023-10-09T07:11:44.747Z,1.83
2023-10-09T07:14:32.638Z,1.83
2023-10-09T07:17:17.471Z,2.17
2023-10-09T07:19:48.789Z,1.63
2023-10-09T07:22:22.669Z,1.42
2023-10-09T07:27:50.965Z,2.85
2023-10-09T07:30:32.792Z,1.98
2023-10-09T07:33:18.094Z,2.55
2023-10-09T07:35:46.625Z,2.97
2023-10-09T07:38:20.755Z,1.92
2023-10-09T07:41:01.367Z,2.23
2023-10-09T07:43:45.907Z,3.35
2023-10-09T07:46:34.954Z,2.88
2023-10-09T07:49:10.482Z,2.40
2023-10-09T07:51:39.466Z,2.40
2023-10-09T07:54:10.074Z,2.83
2023-10-09T07:56:44.891Z,2.55
2023-10-09T07:59:19.661Z,2.20
2023-10-09T08:01:55.705Z,2.40
2023-10-09T08:04:43.337Z,3.08
2023-10-09T08:08:05.852Z,2.58
2023-10-09T08:10:18.716Z,2.22
2023-10-09T08:12:52.177Z,2.78
2023-10-09T08:15:20.243Z,3.33
2023-10-09T08:17:55.230Z,3.05
2023-10-09T08:20:26.912Z,2.78
2023-10-09T08:22:57.252Z,2.72
2023-10-09T08:25:36.219Z,2.28
2023-10-09T08:28:23.319Z,2.13
2023-10-09T08:30:53.599Z,2.20
2023-10-09T08:36:06.278Z,2.78
2023-10-09T08:38:35.405Z,2.47
2023-10-09T08:41:18.603Z,3.00
2023-10-09T08:43:52.512Z,2.40
2023-10-09T08:46:24.943Z,2.13
2023-10-09T08:48:52.358Z,2.17
2023-10-09T08:51:21.274Z,2.92
2023-10-09T08:53:48.625Z,2.83
2023-10-09T08:56:24.358Z,2.70
2023-10-09T08:58:57.687Z,2.58
2023-10-09T09:01:26.492Z,2.95
2023-10-09T09:03:59.105Z,3.38
2023-10-09T09:06:26.529Z,2.53
2023-10-09T09:09:01.140Z,2.50
2023-10-09T09:11:31.994Z,2.92
2023-10-09T09:14:07.337Z,2.30
2023-10-09T09:16:38.340Z,2.45
2023-10-09T09:19:09.963Z,2.40
2023-10-09T09:21:43.787Z,3.15
2023-10-09T09:24:28.190Z,3.10
2023-10-09T09:27:00.462Z,2.58
2023-10-09T09:29:38.854Z,3.88
2023-10-09T09:32:19.670Z,3.50
2023-10-09T09:34:55.786Z,2.92
2023-10-09T09:37:54.449Z,2.13
2023-10-09T09:40:34.946Z,3.65
2023-10-09T09:43:07.168Z,3.08
2023-10-09T09:45:38.352Z,2.92
2023-10-09T09:48:11.846Z,3.38
2023-10-09T09:50:45.049Z,3.28
2023-10-09T09:53:19.551Z,3.25
2023-10-09T09:56:00.747Z,2.38
2023-10-09T09:58:34.119Z,2.80
2023-10-09T10:01:26.726Z,2.25
2023-10-09T10:04:06.680Z,2.75
2023-10-09T10:06:35.171Z,2.63
2023-10-09T10:09:04.133Z,3.20
2023-10-09T10:11:55.654Z,3.17
2023-10-09T10:14:30.164Z,2.63
2023-10-09T10:17:22.652Z,2.30
2023-10-09T10:20:19.104Z,1.95
2023-10-09T10:22:49.809Z,1.83
2023-10-09T10:25:34.277Z,2.65
2023-10-09T10:28:37.541Z,2.35
2023-10-09T10:31:04.886Z,2.45
2023-10-09T10:33:56.089Z,2.80
2023-10-09T10:36:26.428Z,2.35
2023-10-09T10:39:20.850Z,2.00
2023-10-09T10:42:00.386Z,2.33
2023-10-09T10:44:37.168Z,2.10
2023-10-09T10:47:26.397Z,2.08
2023-10-09T10:50:12.361Z,1.63
2023-10-09T10:52:46.373Z,1.58
2023-10-09T10:55:38.715Z,1.40
2023-10-09T10:58:25.768Z,1.83
2023-10-09T11:00:59.617Z,2.20
2023-10-09T11:03:46.052Z,2.20
2023-10-09T11:06:16.628Z,2.70
2023-10-09T11:08:55.857Z,2.15
2023-10-09T11:11:24.310Z,1.90
2023-10-09T11:14:00.387Z,2.75
2023-10-09T11:16:48.854Z,2.90
2023-10-09T11:19:29.597Z,2.72
2023-10-09T11:22:20.675Z,3.08
2023-10-09T11:25:02.467Z,2.85
2023-10-09T11:27:34.117Z,2.47
2023-10-09T11:30:06.975Z,2.92
2023-10-09T11:32:39.837Z,2.47
2023-10-09T11:35:22.240Z,2.50
2023-10-09T11:37:57.365Z,2.38
2023-10-09T11:40:55.231Z,2.53
2023-10-09T11:43:42.651Z,2.08
2023-10-09T11:46:30.828Z,2.15
2023-10-09T11:49:22.029Z,2.05
2023-10-09T11:52:08.317Z,1.92
2023-10-09T11:54:36.974Z,1.60
2023-10-09T11:57:04.993Z,2.00
2023-10-09T11:59:38.953Z,1.67
2023-10-09T12:02:14.262Z,2.15
2023-10-09T12:04:46.742Z,2.28
2023-10-09T12:07:14.530Z,2.28
2023-10-09T12:09:42.314Z,1.92
2023-10-09T12:12:13.163Z,1.70
2023-10-09T12:14:41.022Z,1.92
2023-10-09T12:17:09.610Z,2.15
2023-10-09T12:19:38.952Z,1.90
2023-10-09T12:22:17.557Z,2.20
2023-10-09T12:24:45.134Z,1.73
2023-10-09T12:27:12.704Z,1.58
2023-10-09T12:29:48.049Z,1.85
2023-10-09T12:32:20.906Z,1.63
2023-10-09T12:34:51.999Z,2.10
2023-10-09T12:37:22.150Z,1.60
2023-10-09T12:39:50.545Z,2.85
2023-10-09T12:42:18.306Z,1.48
2023-10-09T12:44:45.883Z,2.13
2023-10-09T12:47:13.484Z,1.70
2023-10-09T12:49:45.950Z,2.13
2023-10-09T12:52:17.679Z,1.48
2023-10-09T12:54:48.992Z,2.50
2023-10-09T12:57:16.500Z,2.05
2023-10-09T12:59:49.574Z,2.17
2023-10-09T13:02:32.483Z,2.22
2023-10-09T13:05:01.677Z,2.03
2023-10-09T13:07:29.257Z,1.45
2023-10-09T13:10:13.547Z,1.90
2023-10-09T13:12:43.115Z,1.60
2023-10-09T13:15:11.988Z,3.58
2023-10-09T13:17:40.020Z,2.35
2023-10-09T13:20:14.370Z,1.98
2023-10-09T13:25:33.766Z,1.90
2023-10-09T13:28:05.325Z,1.73
2023-10-09T13:30:41.503Z,2.15
2023-10-09T13:33:09.218Z,1.83
2023-10-09T13:35:49.565Z,1.60
2023-10-09T13:38:18.124Z,1.95
2023-10-09T13:40:45.533Z,1.65
2023-10-09T13:43:18.066Z,2.25
2023-10-09T13:45:51.088Z,2.25
2023-10-09T13:48:19.088Z,2.28
2023-10-09T13:50:46.553Z,2.28
2023-10-09T13:53:15.971Z,2.40
2023-10-09T13:55:45.837Z,2.05
2023-10-09T13:58:15.520Z,2.03
2023-10-09T14:00:47.640Z,2.72
2023-10-09T14:03:15.396Z,2.58
2023-10-09T14:06:02.275Z,2.83
2023-10-09T14:08:30.295Z,2.65
2023-10-09T14:10:57.737Z,2.30
2023-10-09T14:13:30.153Z,1.50
2023-10-09T14:16:01.319Z,1.52
2023-10-09T14:18:31.352Z,2.03
2023-10-09T14:21:06.277Z,2.30
2023-10-09T14:23:35.905Z,2.03
2023-10-09T14:26:03.705Z,2.20
2023-10-09T14:28:31.025Z,2.47
2023-10-09T14:31:02.056Z,2.03
2023-10-09T14:33:37.343Z,1.98
2023-10-09T14:36:07.182Z,1.60
2023-10-09T14:38:39.567Z,2.17
2023-10-09T14:41:13.088Z,1.80
2023-10-09T14:43:42.544Z,1.90
2023-10-09T14:46:14.828Z,1.70
2023-10-09T14:48:47.201Z,1.80
2023-10-09T14:51:14.962Z,2.13
2023-10-09T14:53:42.294Z,2.50
2023-10-09T14:56:10.368Z,1.88
2023-10-09T14:58:40.445Z,1.90
2023-10-09T15:01:16.634Z,2.03
2023-10-09T15:03:44.439Z,2.03
2023-10-09T15:06:12.513Z,2.72
2023-10-09T15:08:41.185Z,2.45
2023-10-09T15:11:08.845Z,1.48
2023-10-09T15:13:36.464Z,2.05
2023-10-09T15:16:05.005Z,1.80
2023-10-09T15:18:35.133Z,2.20
2023-10-09T15:21:02.444Z,1.63
2023-10-09T15:23:29.734Z,1.40
2023-10-09T15:25:57.033Z,1.55
2023-10-09T15:28:24.557Z,1.70
2023-10-09T15:30:51.871Z,1.17
2023-10-09T15:33:20.081Z,1.35
2023-10-09T15:35:48.019Z,1.45
2023-10-09T15:38:15.442Z,1.63
2023-10-09T15:40:45.136Z,2.05
2023-10-09T15:43:14.679Z,1.85
2023-10-09T15:45:51.680Z,1.77
2023-10-09T15:48:22.948Z,1.90
2023-10-09T15:50:52.770Z,1.30
2023-10-09T15:53:21.021Z,1.50
2023-10-09T15:55:52.640Z,1.58
2023-10-09T15:58:20.053Z,1.42
2023-10-09T16:00:48.882Z,2.15
2023-10-09T16:03:16.438Z,1.33
2023-10-09T16:05:43.860Z,1.73
2023-10-09T16:08:11.224Z,1.77
2023-10-09T16:10:38.563Z,1.85
2023-10-09T16:13:10.292Z,1.83
2023-10-09T16:15:44.239Z,1.70
2023-10-09T16:18:12.681Z,1.73
2023-10-09T16:20:40.143Z,1.40
2023-10-09T16:23:07.470Z,1.55
2023-10-09T16:25:37.846Z,2.47
2023-10-09T16:28:05.632Z,2.05
2023-10-09T16:30:33.008Z,1.55
2023-10-09T16:33:01.907Z,2.13
2023-10-09T16:35:29.416Z,2.35
2023-10-09T16:37:57.133Z,2.33
2023-10-09T16:40:24.824Z,2.60
2023-10-09T16:42:54.770Z,2.97
2023-10-09T16:45:22.297Z,2.67
2023-10-09T16:47:52.664Z,1.92
2023-10-09T16:50:26.912Z,1.95
2023-10-09T16:52:54.405Z,2.17
2023-10-09T16:55:23.095Z,2.45
2023-10-09T16:57:52.197Z,2.78
2023-10-09T17:00:29.851Z,1.80
2023-10-09T17:02:58.272Z,2.22
2023-10-09T17:05:29.896Z,2.20
2023-10-09T17:07:57.856Z,1.95
2023-10-09T17:10:35.861Z,2.08
2023-10-09T17:13:05.357Z,1.92
2023-10-09T17:15:36.893Z,1.65
2023-10-09T17:18:05.107Z,2.13
2023-10-09T17:20:32.504Z,2.35
2023-10-09T17:23:03.234Z,2.45
2023-10-09T17:25:33.841Z,1.70
2023-10-09T17:28:01.423Z,2.28
2023-10-09T17:30:28.904Z,2.15
2023-10-09T17:32:59.144Z,2.17
2023-10-09T17:35:29.198Z,3.25
2023-10-09T17:37:57.842Z,2.50
2023-10-09T17:40:29.311Z,2.25
2023-10-09T17:42:57.427Z,2.42
2023-10-09T17:45:25.842Z,3.90
2023-10-09T17:47:55.214Z,3.45
2023-10-09T17:50:23.654Z,2.75
2023-10-09T17:52:51.092Z,2.95
2023-10-09T17:55:19.569Z,2.78
2023-10-09T17:57:47.040Z,3.53
2023-10-09T18:00:23.726Z,3.38
2023-10-09T18:02:53.483Z,2.63
2023-10-09T18:05:21.624Z,2.65
2023-10-09T18:07:51.095Z,3.83
2023-10-09T18:10:18.881Z,4.05
2023-10-09T18:12:46.444Z,3.70
2023-10-09T18:15:14.959Z,3.40
2023-10-09T18:17:45.432Z,4.13
2023-10-09T18:20:13.496Z,3.30
2023-10-09T18:22:40.956Z,3.70
2023-10-09T18:25:10.579Z,3.08
2023-10-09T18:27:39.472Z,3.10
2023-10-09T18:30:07.556Z,2.65
2023-10-09T18:32:34.836Z,3.63
2023-10-09T18:35:02.311Z,2.92
2023-10-09T18:37:29.780Z,3.17
2023-10-09T18:40:00.456Z,2.97
2023-10-09T18:42:29.999Z,2.75
2023-10-09T18:44:57.422Z,3.20
2023-10-09T18:47:24.774Z,3.00
2023-10-09T18:49:52.132Z,4.53
2023-10-09T18:52:19.589Z,3.80
2023-10-09T18:54:46.985Z,3.90
2023-10-09T18:57:14.506Z,3.97
2023-10-09T18:59:44.006Z,4.30
2023-10-09T19:02:12.975Z,4.97
2023-10-09T19:04:40.652Z,4.45
2023-10-09T19:07:08.022Z,4.45
2023-10-09T19:09:36.335Z,5.05
2023-10-09T19:12:07.374Z,5.25
2023-10-09T19:14:34.680Z,4.90
2023-10-09T19:17:02.077Z,4.47
2023-10-09T19:19:29.567Z,4.90
2023-10-09T19:22:00.873Z,4.82
2023-10-09T19:24:28.237Z,4.93
2023-10-09T19:26:55.608Z,4.35
2023-10-09T19:29:23.080Z,5.22
2023-10-09T19:31:52.334Z,5.75
2023-10-09T19:34:19.831Z,5.53
2023-10-09T19:36:48.908Z,5.32
2023-10-09T19:39:19.248Z,6.05
2023-10-09T19:41:46.824Z,6.28
2023-10-09T19:44:14.302Z,6.57
2023-10-09T19:46:41.729Z,5.82
2023-10-09T19:49:10.229Z,5.82
2023-10-09T19:51:37.644Z,7.25
2023-10-09T19:54:05.289Z,6.78
2023-10-09T19:56:33.296Z,6.10
2023-10-09T19:59:01.415Z,6.85
2023-10-09T20:01:29.199Z,6.43
2023-10-09T20:03:56.708Z,6.15
2023-10-09T20:06:25.271Z,6.80
2023-10-09T20:08:54.918Z,4.93
2023-10-09T20:11:24.154Z,5.93
2023-10-09T20:13:51.985Z,5.75
2023-10-09T20:16:20.286Z,5.50
2023-10-09T20:18:47.714Z,5.38
2023-10-09T20:21:15.109Z,6.35
2023-10-09T20:23:42.907Z,5.53
2023-10-09T20:26:16.325Z,5.22
2023-10-09T20:28:47.095Z,4.65
2023-10-09T20:31:15.854Z,4.70
2023-10-09T20:33:44.171Z,5.05
2023-10-09T20:36:19.728Z,4.22
2023-10-09T20:38:50.868Z,5.18
2023-10-09T20:41:18.673Z,4.15
2023-10-09T20:43:46.333Z,4.78
2023-10-09T20:46:16.674Z,4.88
2023-10-09T20:48:47.898Z,4.68
2023-10-09T20:51:17.021Z,4.57
2023-10-09T20:53:44.872Z,4.47
2023-10-09T20:56:12.385Z,4.78
2023-10-09T20:58:44.171Z,4.22
2023-10-09T21:01:18.438Z,5.10
2023-10-09T21:03:48.195Z,4.43
2023-10-09T21:06:16.067Z,4.43
2023-10-09T21:08:44.687Z,4.18
2023-10-09T21:11:12.361Z,4.28
2023-10-09T21:13:40.908Z,3.78
2023-10-09T21:16:13.749Z,4.18
2023-10-09T21:18:48.324Z,3.67
2023-10-09T21:21:16.982Z,3.72
2023-10-09T21:23:45.791Z,3.38
2023-10-09T21:26:24.455Z,4.03
2023-10-09T21:28:53.466Z,3.75
2023-10-09T21:31:22.840Z,3.40
2023-10-09T21:33:51.115Z,3.88
2023-10-09T21:36:19.071Z,4.15
2023-10-09T21:38:46.496Z,4.20
2023-10-09T21:41:18.292Z,4.28
2023-10-09T21:43:46.280Z,3.72
2023-10-09T21:46:16.317Z,3.88
2023-10-09T21:48:44.222Z,3.78
2023-10-09T21:51:12.918Z,4.10
2023-10-09T21:53:41.030Z,4.47
2023-10-09T21:56:11.408Z,4.10
2023-10-09T21:58:39.126Z,3.65
2023-10-09T22:01:09.270Z,4.70
2023-10-09T22:03:41.565Z,4.72
2023-10-09T22:06:11.512Z,4.18
2023-10-09T22:08:39.220Z,3.72
2023-10-09T22:11:08.808Z,4.63
2023-10-09T22:13:36.945Z,4.13
2023-10-09T22:16:06.305Z,3.65
2023-10-09T22:18:41.164Z,4.00
2023-10-09T22:21:12.190Z,3.88
2023-10-09T22:23:46.830Z,4.22
2023-10-09T22:26:17.677Z,4.40
2023-10-09T22:28:48.100Z,3.30
2023-10-09T22:31:21.885Z,3.60
2023-10-09T22:33:55.156Z,4.90
2023-10-09T22:36:46.814Z,3.70
2023-10-09T22:39:22.828Z,4.43
2023-10-09T22:41:55.938Z,5.18
2023-10-09T22:44:25.766Z,4.47
2023-10-09T22:46:53.670Z,4.05
2023-10-09T22:49:26.236Z,4.20
2023-10-09T22:51:53.614Z,4.65
2023-10-09T22:54:35.830Z,3.95
2023-10-09T22:57:04.782Z,3.85
2023-10-09T22:59:33.382Z,4.78
2023-10-09T23:02:01.114Z,3.85
2023-10-09T23:04:40.736Z,3.50
2023-10-09T23:07:17.504Z,4.45
2023-10-09T23:09:52.537Z,3.75
2023-10-09T23:12:24.349Z,4.40
2023-10-09T23:14:53.906Z,3.65
2023-10-09T23:17:41.849Z,3.85
2023-10-09T23:20:19.129Z,3.83
2023-10-09T23:22:49.768Z,3.45
2023-10-09T23:25:35.081Z,3.78
2023-10-09T23:28:37.407Z,4.00
2023-10-09T23:31:26.083Z,3.70
2023-10-09T23:33:56.834Z,3.08
2023-10-09T23:36:27.476Z,3.95
2023-10-09T23:39:20.961Z,3.92
2023-10-09T23:42:00.150Z,3.72
2023-10-09T23:44:37.570Z,3.50
2023-10-09T23:47:18.042Z,3.67
2023-10-09T23:49:45.665Z,3.80
2023-10-09T23:52:14.995Z,3.60
2023-10-09T23:54:48.812Z,3.78
2023-10-09T23:57:19.486Z,4.22
2023-10-09T23:59:55.184Z,3.95
